sensor_id;sensor_type;location;lat;lon;timestamp;temperature;humidity
4058;DHT22;2044;48.692;9.020;2023-03-23T00:02:03;12.20;99.90
4058;DHT22;2044;48.692;9.020;2023-03-23T00:04:30;12.20;99.90
4058;DHT22;2044;48.692;9.020;2023-03-23T00:06:58;12.20;99.90
4058;DHT22;2044;48.692;9.020;2023-03-23T00:09:26;12.20;99.90
4058;DHT22;2044;48.692;9.020;2023-03-23T00:11:53;12.10;99.90
4058;DHT22;2044;48.692;9.020;2023-03-23T00:14:23;12.10;99.90
4058;DHT22;2044;48.692;9.020;2023-03-23T00:16:50;12.10;99.90
4058;DHT22;2044;48.692;9.020;2023-03-23T00:19:17;12.10;99.90
4058;DHT22;2044;48.692;9.020;2023-03-23T00:21:45;12.00;99.90
4058;DHT22;2044;48.692;9.020;2023-03-23T00:24:15;12.00;99.90
4058;DHT22;2044;48.692;9.020;2023-03-23T00:26:43;11.90;99.90
4058;DHT22;2044;48.692;9.020;2023-03-23T00:29:13;11.90;99.90
4058;DHT22;2044;48.692;9.020;2023-03-23T00:34:13;11.90;99.90
4058;DHT22;2044;48.692;9.020;2023-03-23T00:39:13;11.80;99.90
4058;DHT22;2044;48.692;9.020;2023-03-23T00:41:41;11.80;99.90
4058;DHT22;2044;48.692;9.020;2023-03-23T00:44:08;11.70;99.90
4058;DHT22;2044;48.692;9.020;2023-03-23T00:46:35;11.60;99.90
4058;DHT22;2044;48.692;9.020;2023-03-23T00:49:11;11.60;99.90
4058;DHT22;2044;48.692;9.020;2023-03-23T00:51:39;11.60;99.90
4058;DHT22;2044;48.692;9.020;2023-03-23T00:54:06;11.60;99.90
4058;DHT22;2044;48.692;9.020;2023-03-23T00:56:35;11.70;99.90
4058;DHT22;2044;48.692;9.020;2023-03-23T00:59:02;11.70;99.90
4058;DHT22;2044;48.692;9.020;2023-03-23T01:01:29;11.70;99.90
4058;DHT22;2044;48.692;9.020;2023-03-23T01:03:58;11.80;99.90
4058;DHT22;2044;48.692;9.020;2023-03-23T01:06:27;11.80;99.90
4058;DHT22;2044;48.692;9.020;2023-03-23T01:08:56;11.80;99.90
4058;DHT22;2044;48.692;9.020;2023-03-23T01:11:23;11.90;99.90
4058;DHT22;2044;48.692;9.020;2023-03-23T01:13:51;11.90;99.90
4058;DHT22;2044;48.692;9.020;2023-03-23T01:16:18;11.80;99.90
4058;DHT22;2044;48.692;9.020;2023-03-23T01:18:45;11.80;99.90
4058;DHT22;2044;48.692;9.020;2023-03-23T01:21:13;11.70;99.90
4058;DHT22;2044;48.692;9.020;2023-03-23T01:23:41;11.60;99.90
4058;DHT22;2044;48.692;9.020;2023-03-23T01:26:10;11.60;99.90
4058;DHT22;2044;48.692;9.020;2023-03-23T01:28:38;11.50;99.90
4058;DHT22;2044;48.692;9.020;2023-03-23T01:31:08;11.50;99.90
4058;DHT22;2044;48.692;9.020;2023-03-23T01:33:37;11.50;99.90
4058;DHT22;2044;48.692;9.020;2023-03-23T01:36:05;11.50;99.90
4058;DHT22;2044;48.692;9.020;2023-03-23T01:38:33;11.50;99.90
4058;DHT22;2044;48.692;9.020;2023-03-23T01:41:01;11.50;99.90
4058;DHT22;2044;48.692;9.020;2023-03-23T01:43:28;11.50;99.90
4058;DHT22;2044;48.692;9.020;2023-03-23T01:45:55;11.50;99.90
4058;DHT22;2044;48.692;9.020;2023-03-23T01:48:25;11.50;99.90
4058;DHT22;2044;48.692;9.020;2023-03-23T01:50:57;11.50;99.90
4058;DHT22;2044;48.692;9.020;2023-03-23T01:53:27;11.60;99.90
4058;DHT22;2044;48.692;9.020;2023-03-23T01:55:57;11.60;99.90
4058;DHT22;2044;48.692;9.020;2023-03-23T01:58:27;11.60;99.90
4058;DHT22;2044;48.692;9.020;2023-03-23T02:00:55;11.60;99.90
4058;DHT22;2044;48.692;9.020;2023-03-23T02:03:25;11.60;99.90
4058;DHT22;2044;48.692;9.020;2023-03-23T02:05:53;11.60;99.90
4058;DHT22;2044;48.692;9.020;2023-03-23T02:08:24;11.60;99.90
4058;DHT22;2044;48.692;9.020;2023-03-23T02:10:53;11.60;99.90
4058;DHT22;2044;48.692;9.020;2023-03-23T02:13:20;11.70;99.90
4058;DHT22;2044;48.692;9.020;2023-03-23T02:15:54;11.70;99.90
4058;DHT22;2044;48.692;9.020;2023-03-23T02:18:35;11.60;99.90
4058;DHT22;2044;48.692;9.020;2023-03-23T02:21:30;11.60;99.90
4058;DHT22;2044;48.692;9.020;2023-03-23T02:24:30;11.60;99.90
4058;DHT22;2044;48.692;9.020;2023-03-23T02:27:05;11.60;99.90
4058;DHT22;2044;48.692;9.020;2023-03-23T02:32:31;11.60;99.90
4058;DHT22;2044;48.692;9.020;2023-03-23T02:35:02;11.50;99.90
4058;DHT22;2044;48.692;9.020;2023-03-23T02:37:36;11.40;99.90
4058;DHT22;2044;48.692;9.020;2023-03-23T02:40:06;11.50;99.90
4058;DHT22;2044;48.692;9.020;2023-03-23T02:42:37;11.50;99.90
4058;DHT22;2044;48.692;9.020;2023-03-23T02:45:07;11.40;99.90
4058;DHT22;2044;48.692;9.020;2023-03-23T02:47:35;11.40;99.90
4058;DHT22;2044;48.692;9.020;2023-03-23T02:50:08;11.30;99.90
4058;DHT22;2044;48.692;9.020;2023-03-23T02:52:37;11.30;99.90
4058;DHT22;2044;48.692;9.020;2023-03-23T02:55:07;11.30;99.90
4058;DHT22;2044;48.692;9.020;2023-03-23T03:00:05;11.30;99.90
4058;DHT22;2044;48.692;9.020;2023-03-23T03:02:37;11.50;99.90
4058;DHT22;2044;48.692;9.020;2023-03-23T03:05:11;11.50;99.90
4058;DHT22;2044;48.692;9.020;2023-03-23T03:08:13;11.60;99.90
4058;DHT22;2044;48.692;9.020;2023-03-23T03:10:48;11.70;99.90
4058;DHT22;2044;48.692;9.020;2023-03-23T03:13:28;11.80;99.90
4058;DHT22;2044;48.692;9.020;2023-03-23T03:16:00;11.80;99.90
4058;DHT22;2044;48.692;9.020;2023-03-23T03:18:34;11.90;99.90
4058;DHT22;2044;48.692;9.020;2023-03-23T03:21:08;11.90;99.90
4058;DHT22;2044;48.692;9.020;2023-03-23T03:23:40;11.80;99.90
4058;DHT22;2044;48.692;9.020;2023-03-23T03:26:10;11.90;99.90
4058;DHT22;2044;48.692;9.020;2023-03-23T03:28:39;11.80;99.90
4058;DHT22;2044;48.692;9.020;2023-03-23T03:31:06;11.90;99.90
4058;DHT22;2044;48.692;9.020;2023-03-23T03:33:34;11.90;99.90
4058;DHT22;2044;48.692;9.020;2023-03-23T03:36:03;11.90;99.90
4058;DHT22;2044;48.692;9.020;2023-03-23T03:38:42;11.90;99.90
4058;DHT22;2044;48.692;9.020;2023-03-23T03:41:10;11.90;99.90
4058;DHT22;2044;48.692;9.020;2023-03-23T03:43:37;11.90;99.90
4058;DHT22;2044;48.692;9.020;2023-03-23T03:46:03;11.80;99.90
4058;DHT22;2044;48.692;9.020;2023-03-23T03:48:30;11.80;99.90
4058;DHT22;2044;48.692;9.020;2023-03-23T03:50:57;11.80;99.90
4058;DHT22;2044;48.692;9.020;2023-03-23T03:53:25;11.70;99.90
4058;DHT22;2044;48.692;9.020;2023-03-23T03:55:54;11.70;99.90
4058;DHT22;2044;48.692;9.020;2023-03-23T03:58:25;11.80;99.90
4058;DHT22;2044;48.692;9.020;2023-03-23T04:00:57;11.80;99.90
4058;DHT22;2044;48.692;9.020;2023-03-23T04:03:24;11.80;99.90
4058;DHT22;2044;48.692;9.020;2023-03-23T04:05:52;11.80;99.90
4058;DHT22;2044;48.692;9.020;2023-03-23T04:08:20;11.80;99.90
4058;DHT22;2044;48.692;9.020;2023-03-23T04:10:47;11.80;99.90
4058;DHT22;2044;48.692;9.020;2023-03-23T04:13:15;11.80;99.90
4058;DHT22;2044;48.692;9.020;2023-03-23T04:15:43;11.80;99.90
4058;DHT22;2044;48.692;9.020;2023-03-23T04:18:10;11.80;99.90
4058;DHT22;2044;48.692;9.020;2023-03-23T04:20:37;11.90;99.90
4058;DHT22;2044;48.692;9.020;2023-03-23T04:23:05;11.90;99.90
4058;DHT22;2044;48.692;9.020;2023-03-23T04:25:32;11.90;99.90
4058;DHT22;2044;48.692;9.020;2023-03-23T04:27:59;12.00;99.90
4058;DHT22;2044;48.692;9.020;2023-03-23T04:30:28;12.00;99.90
4058;DHT22;2044;48.692;9.020;2023-03-23T04:32:57;12.00;99.90
4058;DHT22;2044;48.692;9.020;2023-03-23T04:35:26;12.00;99.90
4058;DHT22;2044;48.692;9.020;2023-03-23T04:37:54;9.00;99.90
4058;DHT22;2044;48.692;9.020;2023-03-23T04:40:22;12.00;99.90
4058;DHT22;2044;48.692;9.020;2023-03-23T04:42:49;12.00;99.90
4058;DHT22;2044;48.692;9.020;2023-03-23T04:45:20;12.00;99.90
4058;DHT22;2044;48.692;9.020;2023-03-23T04:47:49;12.10;99.90
4058;DHT22;2044;48.692;9.020;2023-03-23T04:50:20;12.00;99.90
4058;DHT22;2044;48.692;9.020;2023-03-23T04:52:47;12.10;99.90
4058;DHT22;2044;48.692;9.020;2023-03-23T04:55:14;12.10;99.90
4058;DHT22;2044;48.692;9.020;2023-03-23T04:57:42;12.10;99.90
4058;DHT22;2044;48.692;9.020;2023-03-23T05:00:10;12.20;99.90
4058;DHT22;2044;48.692;9.020;2023-03-23T05:02:39;12.10;99.90
4058;DHT22;2044;48.692;9.020;2023-03-23T05:05:09;12.10;99.90
4058;DHT22;2044;48.692;9.020;2023-03-23T05:07:37;12.10;99.90
4058;DHT22;2044;48.692;9.020;2023-03-23T05:10:06;12.00;99.90
4058;DHT22;2044;48.692;9.020;2023-03-23T05:12:33;12.00;99.90
4058;DHT22;2044;48.692;9.020;2023-03-23T05:15:00;12.00;99.90
4058;DHT22;2044;48.692;9.020;2023-03-23T05:17:27;12.00;99.90
4058;DHT22;2044;48.692;9.020;2023-03-23T05:19:55;12.00;99.90
4058;DHT22;2044;48.692;9.020;2023-03-23T05:22:26;12.00;99.90
4058;DHT22;2044;48.692;9.020;2023-03-23T05:24:53;12.00;99.90
4058;DHT22;2044;48.692;9.020;2023-03-23T05:27:21;12.10;99.90
4058;DHT22;2044;48.692;9.020;2023-03-23T05:29:47;12.20;99.90
4058;DHT22;2044;48.692;9.020;2023-03-23T05:32:15;12.20;99.90
4058;DHT22;2044;48.692;9.020;2023-03-23T05:34:42;12.30;99.90
4058;DHT22;2044;48.692;9.020;2023-03-23T05:37:09;12.30;99.90
4058;DHT22;2044;48.692;9.020;2023-03-23T05:39:38;12.30;99.90
4058;DHT22;2044;48.692;9.020;2023-03-23T05:42:06;12.30;99.90
4058;DHT22;2044;48.692;9.020;2023-03-23T05:44:33;12.30;99.90
4058;DHT22;2044;48.692;9.020;2023-03-23T05:46:59;12.40;99.90
4058;DHT22;2044;48.692;9.020;2023-03-23T05:49:26;12.40;99.90
4058;DHT22;2044;48.692;9.020;2023-03-23T05:51:54;12.50;99.90
4058;DHT22;2044;48.692;9.020;2023-03-23T05:56:49;12.50;99.90
4058;DHT22;2044;48.692;9.020;2023-03-23T05:59:16;12.60;99.90
4058;DHT22;2044;48.692;9.020;2023-03-23T06:04:09;12.70;99.90
4058;DHT22;2044;48.692;9.020;2023-03-23T06:06:37;12.70;99.90
4058;DHT22;2044;48.692;9.020;2023-03-23T06:09:04;12.80;99.90
4058;DHT22;2044;48.692;9.020;2023-03-23T06:11:32;12.70;99.90
4058;DHT22;2044;48.692;9.020;2023-03-23T06:14:00;12.80;99.90
4058;DHT22;2044;48.692;9.020;2023-03-23T06:16:28;12.80;99.90
4058;DHT22;2044;48.692;9.020;2023-03-23T06:18:55;12.70;99.90
4058;DHT22;2044;48.692;9.020;2023-03-23T06:21:22;12.70;99.90
4058;DHT22;2044;48.692;9.020;2023-03-23T06:23:49;12.70;99.90
4058;DHT22;2044;48.692;9.020;2023-03-23T06:26:18;12.70;99.90
4058;DHT22;2044;48.692;9.020;2023-03-23T06:28:45;12.80;99.90
4058;DHT22;2044;48.692;9.020;2023-03-23T06:31:14;12.80;99.90
4058;DHT22;2044;48.692;9.020;2023-03-23T06:33:42;12.80;99.90
4058;DHT22;2044;48.692;9.020;2023-03-23T06:36:09;12.80;99.90
4058;DHT22;2044;48.692;9.020;2023-03-23T06:38:37;12.80;99.90
4058;DHT22;2044;48.692;9.020;2023-03-23T06:41:04;12.90;99.90
4058;DHT22;2044;48.692;9.020;2023-03-23T06:43:31;12.90;99.90
4058;DHT22;2044;48.692;9.020;2023-03-23T06:45:59;13.00;99.90
4058;DHT22;2044;48.692;9.020;2023-03-23T06:48:27;13.10;99.90
4058;DHT22;2044;48.692;9.020;2023-03-23T06:50:54;13.10;99.90
4058;DHT22;2044;48.692;9.020;2023-03-23T06:53:21;13.20;99.90
4058;DHT22;2044;48.692;9.020;2023-03-23T06:55:47;13.30;99.90
4058;DHT22;2044;48.692;9.020;2023-03-23T06:58:14;13.40;99.90
4058;DHT22;2044;48.692;9.020;2023-03-23T07:00:41;13.30;99.90
4058;DHT22;2044;48.692;9.020;2023-03-23T07:03:08;13.30;99.90
4058;DHT22;2044;48.692;9.020;2023-03-23T07:05:36;13.30;99.90
4058;DHT22;2044;48.692;9.020;2023-03-23T07:08:03;13.30;99.90
4058;DHT22;2044;48.692;9.020;2023-03-23T07:10:31;13.30;99.90
4058;DHT22;2044;48.692;9.020;2023-03-23T07:12:58;13.30;99.90
4058;DHT22;2044;48.692;9.020;2023-03-23T07:15:26;13.30;99.90
4058;DHT22;2044;48.692;9.020;2023-03-23T07:17:52;13.30;99.90
4058;DHT22;2044;48.692;9.020;2023-03-23T07:20:20;13.20;99.90
4058;DHT22;2044;48.692;9.020;2023-03-23T07:22:48;13.20;99.90
4058;DHT22;2044;48.692;9.020;2023-03-23T07:25:16;13.10;99.90
4058;DHT22;2044;48.692;9.020;2023-03-23T07:27:44;13.10;99.90
4058;DHT22;2044;48.692;9.020;2023-03-23T07:30:12;13.10;99.90
4058;DHT22;2044;48.692;9.020;2023-03-23T07:32:39;13.10;99.90
4058;DHT22;2044;48.692;9.020;2023-03-23T07:35:06;13.10;99.90
4058;DHT22;2044;48.692;9.020;2023-03-23T07:37:33;13.10;99.90
4058;DHT22;2044;48.692;9.020;2023-03-23T07:40:02;13.20;99.90
4058;DHT22;2044;48.692;9.020;2023-03-23T07:42:41;13.20;99.90
4058;DHT22;2044;48.692;9.020;2023-03-23T07:45:09;13.20;99.90
4058;DHT22;2044;48.692;9.020;2023-03-23T07:47:36;13.20;99.90
4058;DHT22;2044;48.692;9.020;2023-03-23T07:50:03;13.40;99.90
4058;DHT22;2044;48.692;9.020;2023-03-23T07:52:30;13.50;99.90
4058;DHT22;2044;48.692;9.020;2023-03-23T07:54:57;13.80;99.90
4058;DHT22;2044;48.692;9.020;2023-03-23T07:57:25;13.90;99.90
4058;DHT22;2044;48.692;9.020;2023-03-23T07:59:52;13.80;99.90
4058;DHT22;2044;48.692;9.020;2023-03-23T08:02:18;13.90;99.90
4058;DHT22;2044;48.692;9.020;2023-03-23T08:07:13;13.80;99.90
4058;DHT22;2044;48.692;9.020;2023-03-23T08:09:41;13.90;99.90
4058;DHT22;2044;48.692;9.020;2023-03-23T08:12:09;13.90;99.90
4058;DHT22;2044;48.692;9.020;2023-03-23T08:14:38;14.00;99.90
4058;DHT22;2044;48.692;9.020;2023-03-23T08:17:05;14.00;99.90
4058;DHT22;2044;48.692;9.020;2023-03-23T08:19:32;14.20;99.90
4058;DHT22;2044;48.692;9.020;2023-03-23T08:22:02;14.30;99.90
4058;DHT22;2044;48.692;9.020;2023-03-23T08:24:29;14.30;99.90
4058;DHT22;2044;48.692;9.020;2023-03-23T08:26:56;14.70;99.90
4058;DHT22;2044;48.692;9.020;2023-03-23T08:29:22;14.90;99.90
4058;DHT22;2044;48.692;9.020;2023-03-23T08:31:51;14.90;99.90
4058;DHT22;2044;48.692;9.020;2023-03-23T08:34:18;14.70;99.90
4058;DHT22;2044;48.692;9.020;2023-03-23T08:36:45;14.60;99.90
4058;DHT22;2044;48.692;9.020;2023-03-23T08:39:12;14.20;99.90
4058;DHT22;2044;48.692;9.020;2023-03-23T08:41:39;14.20;99.90
4058;DHT22;2044;48.692;9.020;2023-03-23T08:44:06;14.30;99.90
4058;DHT22;2044;48.692;9.020;2023-03-23T08:46:34;14.50;99.90
4058;DHT22;2044;48.692;9.020;2023-03-23T08:49:02;14.80;99.90
4058;DHT22;2044;48.692;9.020;2023-03-23T08:51:29;14.80;99.90
4058;DHT22;2044;48.692;9.020;2023-03-23T08:53:55;14.70;99.90
4058;DHT22;2044;48.692;9.020;2023-03-23T08:56:22;14.50;99.90
4058;DHT22;2044;48.692;9.020;2023-03-23T08:58:49;14.40;99.90
4058;DHT22;2044;48.692;9.020;2023-03-23T09:01:16;14.30;99.90
4058;DHT22;2044;48.692;9.020;2023-03-23T09:03:43;14.30;99.90
4058;DHT22;2044;48.692;9.020;2023-03-23T09:06:11;14.40;99.90
4058;DHT22;2044;48.692;9.020;2023-03-23T09:08:39;14.70;99.90
4058;DHT22;2044;48.692;9.020;2023-03-23T09:11:07;14.70;99.90
4058;DHT22;2044;48.692;9.020;2023-03-23T09:13:35;14.90;99.90
4058;DHT22;2044;48.692;9.020;2023-03-23T09:16:02;15.00;99.90
4058;DHT22;2044;48.692;9.020;2023-03-23T09:18:29;15.00;99.90
4058;DHT22;2044;48.692;9.020;2023-03-23T09:20:58;15.00;99.90
4058;DHT22;2044;48.692;9.020;2023-03-23T09:23:27;15.00;99.90
4058;DHT22;2044;48.692;9.020;2023-03-23T09:25:54;15.00;99.90
4058;DHT22;2044;48.692;9.020;2023-03-23T09:28:20;15.40;99.90
4058;DHT22;2044;48.692;9.020;2023-03-23T09:30:47;15.40;99.90
4058;DHT22;2044;48.692;9.020;2023-03-23T09:33:14;14.90;99.90
4058;DHT22;2044;48.692;9.020;2023-03-23T09:35:41;14.70;99.90
4058;DHT22;2044;48.692;9.020;2023-03-23T09:38:09;14.50;99.90
4058;DHT22;2044;48.692;9.020;2023-03-23T09:40:45;14.40;99.90
4058;DHT22;2044;48.692;9.020;2023-03-23T09:46:18;14.20;99.90
4058;DHT22;2044;48.692;9.020;2023-03-23T09:48:51;14.60;99.90
4058;DHT22;2044;48.692;9.020;2023-03-23T09:51:32;14.70;99.90
4058;DHT22;2044;48.692;9.020;2023-03-23T09:54:09;14.80;99.90
4058;DHT22;2044;48.692;9.020;2023-03-23T09:56:39;14.50;99.90
4058;DHT22;2044;48.692;9.020;2023-03-23T09:59:21;15.00;99.90
4058;DHT22;2044;48.692;9.020;2023-03-23T10:01:51;15.00;99.90
4058;DHT22;2044;48.692;9.020;2023-03-23T10:04:30;15.00;99.90
4058;DHT22;2044;48.692;9.020;2023-03-23T10:06:59;15.00;99.90
4058;DHT22;2044;48.692;9.020;2023-03-23T10:09:27;15.50;99.90
4058;DHT22;2044;48.692;9.020;2023-03-23T10:12:02;15.60;99.90
4058;DHT22;2044;48.692;9.020;2023-03-23T10:14:47;16.60;99.90
4058;DHT22;2044;48.692;9.020;2023-03-23T10:17:23;16.90;99.90
4058;DHT22;2044;48.692;9.020;2023-03-23T10:19:55;16.00;99.90
4058;DHT22;2044;48.692;9.020;2023-03-23T10:22:29;15.60;99.90
4058;DHT22;2044;48.692;9.020;2023-03-23T10:25:02;15.40;99.90
4058;DHT22;2044;48.692;9.020;2023-03-23T10:27:33;15.90;99.90
4058;DHT22;2044;48.692;9.020;2023-03-23T10:30:14;15.50;99.90
4058;DHT22;2044;48.692;9.020;2023-03-23T10:32:45;15.80;99.90
4058;DHT22;2044;48.692;9.020;2023-03-23T10:35:18;16.20;99.90
4058;DHT22;2044;48.692;9.020;2023-03-23T10:37:49;16.20;99.90
4058;DHT22;2044;48.692;9.020;2023-03-23T10:40:19;15.80;99.90
4058;DHT22;2044;48.692;9.020;2023-03-23T10:42:47;16.30;99.90
4058;DHT22;2044;48.692;9.020;2023-03-23T10:45:18;16.90;99.90
4058;DHT22;2044;48.692;9.020;2023-03-23T10:47:51;16.80;99.90
4058;DHT22;2044;48.692;9.020;2023-03-23T10:50:23;18.00;99.90
4058;DHT22;2044;48.692;9.020;2023-03-23T10:52:52;19.00;99.90
4058;DHT22;2044;48.692;9.020;2023-03-23T10:55:22;18.80;99.90
4058;DHT22;2044;48.692;9.020;2023-03-23T10:58:01;18.60;99.90
4058;DHT22;2044;48.692;9.020;2023-03-23T11:00:29;17.90;99.90
4058;DHT22;2044;48.692;9.020;2023-03-23T11:03:02;18.10;99.90
4058;DHT22;2044;48.692;9.020;2023-03-23T11:05:36;17.80;99.90
4058;DHT22;2044;48.692;9.020;2023-03-23T11:08:11;17.80;99.90
4058;DHT22;2044;48.692;9.020;2023-03-23T11:10:41;17.30;99.90
4058;DHT22;2044;48.692;9.020;2023-03-23T11:13:13;16.60;99.90
4058;DHT22;2044;48.692;9.020;2023-03-23T11:15:42;16.30;99.90
4058;DHT22;2044;48.692;9.020;2023-03-23T11:18:11;16.10;99.90
4058;DHT22;2044;48.692;9.020;2023-03-23T11:20:42;16.30;99.90
4058;DHT22;2044;48.692;9.020;2023-03-23T11:23:13;16.20;99.90
4058;DHT22;2044;48.692;9.020;2023-03-23T11:25:57;16.10;99.90
4058;DHT22;2044;48.692;9.020;2023-03-23T11:28:32;16.00;99.90
4058;DHT22;2044;48.692;9.020;2023-03-23T11:31:01;15.90;99.90
4058;DHT22;2044;48.692;9.020;2023-03-23T11:33:36;16.10;99.90
4058;DHT22;2044;48.692;9.020;2023-03-23T11:36:04;16.70;99.90
4058;DHT22;2044;48.692;9.020;2023-03-23T11:38:32;16.80;99.90
4058;DHT22;2044;48.692;9.020;2023-03-23T11:41:00;16.90;99.90
4058;DHT22;2044;48.692;9.020;2023-03-23T11:43:28;16.30;99.90
4058;DHT22;2044;48.692;9.020;2023-03-23T11:46:02;16.40;99.90
4058;DHT22;2044;48.692;9.020;2023-03-23T11:48:34;16.60;99.90
4058;DHT22;2044;48.692;9.020;2023-03-23T11:51:05;16.60;99.90
4058;DHT22;2044;48.692;9.020;2023-03-23T11:53:42;16.70;99.90
4058;DHT22;2044;48.692;9.020;2023-03-23T11:56:17;17.10;99.90
4058;DHT22;2044;48.692;9.020;2023-03-23T11:58:46;17.10;99.90
4058;DHT22;2044;48.692;9.020;2023-03-23T12:01:26;16.80;99.90
4058;DHT22;2044;48.692;9.020;2023-03-23T12:04:14;16.50;99.90
4058;DHT22;2044;48.692;9.020;2023-03-23T12:06:50;16.40;99.90
4058;DHT22;2044;48.692;9.020;2023-03-23T12:09:34;16.10;99.90
4058;DHT22;2044;48.692;9.020;2023-03-23T12:12:14;16.20;99.90
4058;DHT22;2044;48.692;9.020;2023-03-23T12:14:53;16.40;99.90
4058;DHT22;2044;48.692;9.020;2023-03-23T12:17:29;16.50;99.90
4058;DHT22;2044;48.692;9.020;2023-03-23T12:20:13;16.10;99.90
4058;DHT22;2044;48.692;9.020;2023-03-23T12:22:54;16.00;99.90
4058;DHT22;2044;48.692;9.020;2023-03-23T12:25:53;16.10;99.90
4058;DHT22;2044;48.692;9.020;2023-03-23T12:28:29;16.30;99.90
4058;DHT22;2044;48.692;9.020;2023-03-23T12:31:04;16.30;99.90
4058;DHT22;2044;48.692;9.020;2023-03-23T12:33:41;16.40;99.90
4058;DHT22;2044;48.692;9.020;2023-03-23T12:36:19;16.80;99.90
4058;DHT22;2044;48.692;9.020;2023-03-23T12:39:01;16.90;99.90
4058;DHT22;2044;48.692;9.020;2023-03-23T12:41:35;16.80;99.90
4058;DHT22;2044;48.692;9.020;2023-03-23T12:44:09;17.10;99.90
4058;DHT22;2044;48.692;9.020;2023-03-23T12:47:01;16.90;99.90
4058;DHT22;2044;48.692;9.020;2023-03-23T12:49:33;17.20;99.90
4058;DHT22;2044;48.692;9.020;2023-03-23T12:52:15;17.20;99.90
4058;DHT22;2044;48.692;9.020;2023-03-23T12:54:47;18.00;99.90
4058;DHT22;2044;48.692;9.020;2023-03-23T12:57:24;18.00;99.90
4058;DHT22;2044;48.692;9.020;2023-03-23T13:00:02;17.70;99.90
4058;DHT22;2044;48.692;9.020;2023-03-23T13:02:41;17.40;99.90
4058;DHT22;2044;48.692;9.020;2023-03-23T13:05:13;17.20;99.90
4058;DHT22;2044;48.692;9.020;2023-03-23T13:07:45;17.30;99.90
4058;DHT22;2044;48.692;9.020;2023-03-23T13:10:18;17.70;99.90
4058;DHT22;2044;48.692;9.020;2023-03-23T13:12:46;17.40;99.90
4058;DHT22;2044;48.692;9.020;2023-03-23T13:15:26;17.30;99.90
4058;DHT22;2044;48.692;9.020;2023-03-23T13:18:02;17.70;99.90
4058;DHT22;2044;48.692;9.020;2023-03-23T13:20:59;18.10;99.90
4058;DHT22;2044;48.692;9.020;2023-03-23T13:23:33;17.60;99.90
4058;DHT22;2044;48.692;9.020;2023-03-23T13:26:03;17.70;99.90
4058;DHT22;2044;48.692;9.020;2023-03-23T13:28:47;17.80;99.90
4058;DHT22;2044;48.692;9.020;2023-03-23T13:31:16;17.70;99.90
4058;DHT22;2044;48.692;9.020;2023-03-23T13:33:53;17.60;99.90
4058;DHT22;2044;48.692;9.020;2023-03-23T13:36:28;17.60;99.90
4058;DHT22;2044;48.692;9.020;2023-03-23T13:38:57;17.70;99.90
4058;DHT22;2044;48.692;9.020;2023-03-23T13:41:25;17.70;99.90
4058;DHT22;2044;48.692;9.020;2023-03-23T13:43:54;17.70;99.90
4058;DHT22;2044;48.692;9.020;2023-03-23T13:46:30;18.20;99.90
4058;DHT22;2044;48.692;9.020;2023-03-23T13:49:17;18.50;99.90
4058;DHT22;2044;48.692;9.020;2023-03-23T13:51:56;18.60;99.90
4058;DHT22;2044;48.692;9.020;2023-03-23T13:54:29;18.30;99.90
4058;DHT22;2044;48.692;9.020;2023-03-23T13:56:58;18.10;99.90
4058;DHT22;2044;48.692;9.020;2023-03-23T13:59:35;18.30;99.90
4058;DHT22;2044;48.692;9.020;2023-03-23T14:02:36;17.90;99.90
4058;DHT22;2044;48.692;9.020;2023-03-23T14:05:35;17.20;99.90
4058;DHT22;2044;48.692;9.020;2023-03-23T14:08:11;17.00;99.90
4058;DHT22;2044;48.692;9.020;2023-03-23T14:10:40;16.50;99.90
4058;DHT22;2044;48.692;9.020;2023-03-23T14:13:16;16.60;99.90
4058;DHT22;2044;48.692;9.020;2023-03-23T14:15:44;16.70;99.90
4058;DHT22;2044;48.692;9.020;2023-03-23T14:18:15;16.80;99.90
4058;DHT22;2044;48.692;9.020;2023-03-23T14:20:46;16.70;99.90
4058;DHT22;2044;48.692;9.020;2023-03-23T14:23:18;16.60;99.90
4058;DHT22;2044;48.692;9.020;2023-03-23T14:25:54;16.60;99.90
4058;DHT22;2044;48.692;9.020;2023-03-23T14:30:52;16.50;99.90
4058;DHT22;2044;48.692;9.020;2023-03-23T14:33:20;16.80;99.90
4058;DHT22;2044;48.692;9.020;2023-03-23T14:35:48;16.70;99.90
4058;DHT22;2044;48.692;9.020;2023-03-23T14:38:17;16.50;99.90
4058;DHT22;2044;48.692;9.020;2023-03-23T14:40:45;16.40;99.90
4058;DHT22;2044;48.692;9.020;2023-03-23T14:43:15;16.20;99.90
4058;DHT22;2044;48.692;9.020;2023-03-23T14:45:43;16.30;99.90
4058;DHT22;2044;48.692;9.020;2023-03-23T14:48:13;16.40;99.90
4058;DHT22;2044;48.692;9.020;2023-03-23T14:50:42;16.20;99.90
4058;DHT22;2044;48.692;9.020;2023-03-23T14:53:20;16.30;99.90
4058;DHT22;2044;48.692;9.020;2023-03-23T14:55:49;16.40;99.90
4058;DHT22;2044;48.692;9.020;2023-03-23T14:58:17;16.30;99.90
4058;DHT22;2044;48.692;9.020;2023-03-23T15:00:50;16.30;99.90
4058;DHT22;2044;48.692;9.020;2023-03-23T15:03:20;16.30;99.90
4058;DHT22;2044;48.692;9.020;2023-03-23T15:05:48;16.50;99.90
4058;DHT22;2044;48.692;9.020;2023-03-23T15:08:23;16.40;99.90
4058;DHT22;2044;48.692;9.020;2023-03-23T15:10:57;16.40;99.90
4058;DHT22;2044;48.692;9.020;2023-03-23T15:13:25;16.20;99.90
4058;DHT22;2044;48.692;9.020;2023-03-23T15:16:01;16.30;99.90
4058;DHT22;2044;48.692;9.020;2023-03-23T15:18:31;16.30;99.90
4058;DHT22;2044;48.692;9.020;2023-03-23T15:21:08;16.30;99.90
4058;DHT22;2044;48.692;9.020;2023-03-23T15:23:41;16.20;99.90
4058;DHT22;2044;48.692;9.020;2023-03-23T15:26:24;16.10;99.90
4058;DHT22;2044;48.692;9.020;2023-03-23T15:29:10;16.10;99.90
4058;DHT22;2044;48.692;9.020;2023-03-23T15:31:41;16.00;99.90
4058;DHT22;2044;48.692;9.020;2023-03-23T15:34:15;16.00;99.90
4058;DHT22;2044;48.692;9.020;2023-03-23T15:36:42;15.90;99.90
4058;DHT22;2044;48.692;9.020;2023-03-23T15:39:12;15.90;99.90
4058;DHT22;2044;48.692;9.020;2023-03-23T15:41:46;16.40;99.90
4058;DHT22;2044;48.692;9.020;2023-03-23T15:44:25;15.90;99.90
4058;DHT22;2044;48.692;9.020;2023-03-23T15:47:02;15.80;99.90
4058;DHT22;2044;48.692;9.020;2023-03-23T15:49:29;15.80;99.90
4058;DHT22;2044;48.692;9.020;2023-03-23T15:51:56;15.80;99.90
4058;DHT22;2044;48.692;9.020;2023-03-23T15:54:30;15.70;99.90
4058;DHT22;2044;48.692;9.020;2023-03-23T15:56:57;15.60;99.90
4058;DHT22;2044;48.692;9.020;2023-03-23T15:59:24;15.50;99.90
4058;DHT22;2044;48.692;9.020;2023-03-23T16:01:50;15.50;99.90
4058;DHT22;2044;48.692;9.020;2023-03-23T16:04:18;15.50;99.90
4058;DHT22;2044;48.692;9.020;2023-03-23T16:06:45;15.50;99.90
4058;DHT22;2044;48.692;9.020;2023-03-23T16:09:13;15.40;99.90
4058;DHT22;2044;48.692;9.020;2023-03-23T16:11:42;15.40;99.90
4058;DHT22;2044;48.692;9.020;2023-03-23T16:14:09;15.40;99.90
4058;DHT22;2044;48.692;9.020;2023-03-23T16:16:38;15.30;99.90
4058;DHT22;2044;48.692;9.020;2023-03-23T16:19:05;15.20;99.90
4058;DHT22;2044;48.692;9.020;2023-03-23T16:21:32;15.20;99.90
4058;DHT22;2044;48.692;9.020;2023-03-23T16:23:58;15.20;99.90
4058;DHT22;2044;48.692;9.020;2023-03-23T16:26:25;15.20;99.90
4058;DHT22;2044;48.692;9.020;2023-03-23T16:28:54;15.10;99.90
4058;DHT22;2044;48.692;9.020;2023-03-23T16:31:21;15.10;99.90
4058;DHT22;2044;48.692;9.020;2023-03-23T16:33:48;15.00;99.90
4058;DHT22;2044;48.692;9.020;2023-03-23T16:36:14;15.00;99.90
4058;DHT22;2044;48.692;9.020;2023-03-23T16:38:41;15.00;99.90
4058;DHT22;2044;48.692;9.020;2023-03-23T16:41:08;15.00;99.90
4058;DHT22;2044;48.692;9.020;2023-03-23T16:43:35;14.90;99.90
4058;DHT22;2044;48.692;9.020;2023-03-23T16:46:03;14.90;99.90
4058;DHT22;2044;48.692;9.020;2023-03-23T16:48:30;14.80;99.90